Oakland, CA (94621)

10:23 PM PDT on August 22, 2014 (GMT -0700)
Eastmont Hills | Change Station
CLOSE
Current Station
Personal Weather Station
Location: Oakland, CA
Elevation: 423 ft
Nearby Weather Stations

Elev 423 ft 37.77 °N, 122.16 °W | Updated 3 minutes ago

Overcast
Overcast
59.0 °F
Feels Like 59.0 °F
N
0.0
Wind Variable Wind from WSW
Gusts 0.0 mph

Today
High -- | Low -- °F
--% Chance of Precip.
Yesterday
High -- | Low -- °F
Precip. -- in
6:30 AM 7:52 PM
Waning Crescent, 5% visible
Pressure 29.94 in
Visibility 10.0 miles
Clouds Overcast 1000 ft
Dew Point 54 °F
Humidity 85%
Rainfall 0.00 in
Snow Depth Not available.
UV 0 out of 12
Pollen 5.70 out of 12
Ozone Good
PM2.5 Good
Flu Activity Not available.
METAR KOAK 230453Z 25008KT 10SM OVC010 17/13 A2994 RMK AO2 SLP137 T01670128

More Conditions Fewer Conditions

Pressure 29.94 in
Visibility 10.0 miles
Clouds Overcast 1000 ft
Dew Point 54 °F
Humidity 85%
Rainfall 0.00 in
Snow Depth Not available.
UV 0 out of 12
Pollen 5.70 out of 12
Ozone Good
PM2.5 Good
Flu Activity Not available.
METAR KOAK 230453Z 25008KT 10SM OVC010 17/13 A2994 RMK AO2 SLP137 T01670128

More Conditions Fewer Conditions

10-Day Weather Forecast

Almanac

Astronomy

Aug. 22, 2014 Rise Set
Actual Time 6:30 AM PDT 7:52 PM PDT
Civil Twilight 6:02 AM PDT 8:19 PM PDT
Nautical Twilight 5:30 AM PDT 8:52 PM PDT
Astronomical Twilight 4:55 AM PDT 9:26 PM PDT
Moon 3:59 AM PDT (8/22) 6:03 PM PDT (8/22)
Length of Visible Light 14h 16m
Length of Day
13h 21m
Tomorrow will be 2m 13s shorter.
Waning Crescent, 5% of the Moon is Illuminated
Aug 23
Waning Crescent
Aug 25
New
Sep 2
First Quarter
Sep 8
Full
Sep 15
Last Quarter

Yesterday's Extremes

State Highs State Lows

Community

WunderPhotos

Upload Photos

1,746,370 photos uploaded!

WunderBlogs® & News

By Dr. Jeff Masters
Director of Meteorology, Weather Underground
By Kari Strenfel
Meteorologist, Weather Underground
By Christopher C. Burt
Weather Historian, Weather Underground
August 23, 2014
August 23, 2014
August 22, 2014

Nearby

Air Quality

  Air Quality AQ Index Pollutant
Yesterday Good
PM2.5
Yesterday Good
OZONE
Current Good
PM2.5
Current Good
OZONE
Friday Good
PM2.5
Saturday Good
PM2.5
Sunday Moderate
PM2.5
Monday Moderate
PM2.5
Tuesday Moderate
PM2.5
Wednesday Moderate
PM2.5

Snow Depth

Station Depth Elevation
Forestdale Creek 0 in 8029 ft
Echo Peak 1 in 7800 ft
Fallen Leaf 0 in 6300 ft
Hagan's Meadow 0 in 8000 ft
Leavitt Lake 0 in 9400 ft

Earthquake Activity

City Distance Mag. Time & Date
Berkeley, California 8 miles 2.6 7:41 PM PDT
2014-08-16
King City, California 124 miles 2.7 10:26 PM PDT
2014-08-15
Minimum magnitude displayed is 2.5.

Coastal Water Temperatures

Place Temperature
No Stations Reporting

Nearby Weather Stations